Portada
METAR-TAF:

METAR-TAF

Aeroports :

Wheeling-Prospect Heights, Illinois, Estats Units d'Amèrica

Chicago Executive Airport

latitud: 42-07-15N, longitud: 087-54-17W, altitud: 197 m

Observació

L'informe es va fer fa 58 minuts, a les 20:52 UTC
Vent 12 kt del Est/Nord-Est
Temperatura 14°C
Humitat 31%
Pressió 1026 hPa
Visibilitat: 16.1 km
Cel clar

METAR: KPWK 222052Z 06012KT 10SM CLR 14/M03 A3029 RMK AO2 SLP260 T01441033 58020

Hora: 16:50 (21:50 UTC)


TAF: manca

Observacions i pronòstics meteorològics de més de 4000 aeroports (METAR i TAF).

Les estacions disponibles són els punts grocs i vermells al mapa.

Posi el ratolí al punt desitjat per veure el nom de l'estació.

Feu clic per veure les observacions i els pronòstics meteorològics.

Per canviar el mapa: feu clic els botons verds amb una creu de color negre per apropar; al botó verd amb un guió per allunyar la imatge; o en les fletxes verdes per a mapes adjacents.


METAR-TAF: